Time;durP1;ratioP1;P1;durP2;ratioP2;P2;SDS_P1;SDS_P2;PMS_P1;PMS_P2;Temp;Humidity;BMP_temperature;BMP_pressure;BME280_temperature;BME280_humidity;BME280_pressure;Samples;Min_cycle;Max_cycle;Signal;HPM_P1;HPM_P2
2023/07/29 00:02:25;;;;;;;8.57;6.23;;;19.20;99.90;;;;;;5118680;28;20437;-59
2023/07/29 00:04:52;;;;;;;6.80;5.93;;;;;;;;;;5116177;28;20457;-59
2023/07/29 00:07:19;;;;;;;11.20;6.73;;;19.10;99.90;;;;;;5117041;28;20433;-56
2023/07/29 00:09:46;;;;;;;7.07;5.47;;;19.00;99.90;;;;;;5117083;28;20444;-58
2023/07/29 00:12:13;;;;;;;9.23;6.70;;;19.10;99.90;;;;;;5114153;28;20430;-53
2023/07/29 00:14:41;;;;;;;8.27;6.40;;;19.30;99.90;;;;;;5105613;28;20461;-62
2023/07/29 00:17:08;;;;;;;7.40;6.20;;;18.70;99.90;;;;;;5111156;28;20489;-62
2023/07/29 00:19:35;;;;;;;7.57;6.23;;;18.90;99.90;;;;;;5116572;28;20433;-62
2023/07/29 00:22:02;;;;;;;10.53;6.13;;;18.90;99.90;;;;;;5115306;28;20433;-63
2023/07/29 00:24:29;;;;;;;8.97;5.93;;;18.90;99.90;;;;;;5116074;28;20504;-58
2023/07/29 00:26:56;;;;;;;7.70;6.30;;;19.10;99.90;;;;;;5116475;28;20433;-59
2023/07/29 00:29:23;;;;;;;9.63;6.73;;;19.00;99.90;;;;;;5115394;28;20489;-60
2023/07/29 00:31:51;;;;;;;8.53;6.57;;;18.80;99.90;;;;;;5116416;28;20454;-61
2023/07/29 00:34:20;;;;;;;7.13;6.43;;;19.00;99.90;;;;;;5115679;28;20469;-55
2023/07/29 00:36:47;;;;;;;7.93;6.57;;;19.00;99.90;;;;;;5115254;28;20433;-54
2023/07/29 00:39:14;;;;;;;10.13;6.40;;;19.00;99.90;;;;;;5115896;28;20437;-55
2023/07/29 00:41:41;;;;;;;9.23;6.80;;;18.90;99.90;;;;;;5115768;28;20461;-60
2023/07/29 00:44:09;;;;;;;9.17;6.27;;;19.70;99.90;;;;;;5104871;28;20445;-60
2023/07/29 00:46:37;;;;;;;9.33;6.67;;;19.10;99.90;;;;;;5115687;28;20501;-59
2023/07/29 00:49:05;;;;;;;9.23;6.60;;;18.80;99.90;;;;;;5116221;28;20471;-59
2023/07/29 00:51:32;;;;;;;7.83;6.73;;;18.80;99.90;;;;;;5115264;28;20457;-60
2023/07/29 00:53:59;;;;;;;7.87;6.37;;;19.00;99.90;;;;;;5114703;28;20484;-60
2023/07/29 00:56:25;;;;;;;8.20;6.90;;;18.90;99.90;;;;;;5115913;28;20495;-58
2023/07/29 00:58:58;;;;;;;7.73;5.63;;;19.00;99.90;;;;;;5115588;28;20437;-60
2023/07/29 01:01:25;;;;;;;7.73;5.53;;;18.90;99.90;;;;;;5115254;28;20457;-60
2023/07/29 01:03:52;;;;;;;7.30;6.00;;;19.10;99.90;;;;;;5105338;28;20438;-57
2023/07/29 01:06:30;;;;;;;8.33;6.50;;;19.30;99.90;;;;;;5115282;28;20529;-61
2023/07/29 01:09:08;;;;;;;13.97;7.23;;;18.80;99.90;;;;;;5115537;28;20409;-62
2023/07/29 01:11:44;;;;;;;10.77;6.77;;;19.00;99.90;;;;;;5111993;28;20499;-63
2023/07/29 01:14:22;;;;;;;9.03;6.67;;;18.70;99.90;;;;;;5115148;28;20506;-56
2023/07/29 01:16:53;;;;;;;8.93;6.07;;;19.20;99.90;;;;;;5114705;28;20422;-54
2023/07/29 01:19:37;;;;;;;12.13;6.17;;;18.70;99.90;;;;;;5115798;28;20450;-61
2023/07/29 01:22:08;;;;;;;7.80;5.53;;;18.90;99.90;;;;;;5114713;28;20537;-59
2023/07/29 01:24:36;;;;;;;8.10;6.10;;;18.90;99.90;;;;;;5114960;28;20480;-57
2023/07/29 01:27:04;;;;;;;7.83;5.70;;;18.80;99.90;;;;;;5115054;28;20429;-62
2023/07/29 01:29:31;;;;;;;8.13;6.60;;;18.80;99.90;;;;;;5115281;28;20458;-62
2023/07/29 01:32:02;;;;;;;8.53;7.03;;;18.70;99.90;;;;;;5098863;28;20438;-61
2023/07/29 01:34:36;;;;;;;8.23;6.20;;;18.40;99.90;;;;;;5094591;28;20477;-59
2023/07/29 01:37:07;;;;;;;9.53;7.83;;;18.70;99.90;;;;;;5094882;28;20466;-62
2023/07/29 01:39:37;;;;;;;8.77;7.50;;;18.60;99.90;;;;;;5094819;28;20414;-57
2023/07/29 01:42:05;;;;;;;9.90;7.33;;;18.60;99.90;;;;;;5094509;28;20446;-63
2023/07/29 01:44:32;;;;;;;7.77;6.43;;;18.60;99.90;;;;;;5094327;28;20419;-61
2023/07/29 01:47:01;;;;;;;9.43;7.60;;;18.50;99.90;;;;;;5095402;28;20446;-61
2023/07/29 01:49:28;;;;;;;10.27;6.90;;;18.50;99.90;;;;;;5089075;28;20470;-61
2023/07/29 01:51:55;;;;;;;12.03;7.53;;;18.50;99.90;;;;;;5087721;28;20458;-59
2023/07/29 01:54:22;;;;;;;10.27;7.80;;;18.50;99.90;;;;;;5092274;28;20494;-57
2023/07/29 01:56:51;;;;;;;12.23;8.07;;;18.50;99.90;;;;;;5081623;28;20450;-53
2023/07/29 01:59:18;;;;;;;11.57;7.20;;;18.70;99.90;;;;;;5094635;28;20442;-60
2023/07/29 02:01:48;;;;;;;9.07;6.67;;;18.60;99.90;;;;;;5107071;28;20462;-60
2023/07/29 02:04:15;;;;;;;16.20;7.10;;;;;;;;;;5114108;28;20525;-61
2023/07/29 02:06:42;;;;;;;10.73;8.40;;;18.40;99.90;;;;;;5112923;28;20478;-62
2023/07/29 02:09:12;;;;;;;9.27;6.90;;;18.20;99.90;;;;;;5115330;28;20409;-62
2023/07/29 02:11:39;;;;;;;9.80;6.27;;;18.50;99.90;;;;;;5103895;28;20561;-63
2023/07/29 02:14:07;;;;;;;8.67;7.70;;;18.30;99.90;;;;;;5101394;28;20495;-62
2023/07/29 02:16:34;;;;;;;9.60;6.43;;;18.30;99.90;;;;;;5103969;28;20505;-63
2023/07/29 02:19:03;;;;;;;9.40;7.20;;;17.90;99.90;;;;;;5099796;28;20465;-60
2023/07/29 02:21:30;;;;;;;9.20;6.60;;;18.10;99.90;;;;;;5098321;28;20484;-63
2023/07/29 02:23:56;;;;;;;9.00;7.17;;;18.20;99.90;;;;;;5099932;28;20445;-62
2023/07/29 02:26:23;;;;;;;8.90;7.03;;;18.00;99.90;;;;;;5103040;28;20497;-62
2023/07/29 02:28:50;;;;;;;9.33;7.20;;;18.20;99.90;;;;;;5103891;28;20454;-61
2023/07/29 02:31:21;;;;;;;9.13;6.30;;;18.20;99.90;;;;;;5091482;28;20494;-60
2023/07/29 02:33:49;;;;;;;10.83;7.77;;;18.20;99.90;;;;;;5081377;28;20549;-59
2023/07/29 02:36:16;;;;;;;11.60;8.40;;;18.40;99.90;;;;;;5088101;28;20442;-62
2023/07/29 02:38:44;;;;;;;7.70;6.70;;;18.30;99.90;;;;;;5078833;28;20455;-63
2023/07/29 02:41:12;;;;;;;9.00;7.60;;;18.20;99.90;;;;;;5077344;28;20587;-63
2023/07/29 02:43:40;;;;;;;17.77;8.50;;;18.30;99.90;;;;;;5077613;28;20470;-65
2023/07/29 02:46:07;;;;;;;13.27;7.93;;;18.30;99.90;;;;;;5077494;28;20557;-62
2023/07/29 02:48:35;;;;;;;12.30;8.87;;;18.30;99.90;;;;;;5079441;28;20482;-61
2023/07/29 02:51:02;;;;;;;9.80;8.80;;;18.10;99.90;;;;;;5085826;28;20474;-63
2023/07/29 02:53:29;;;;;;;9.23;8.13;;;18.30;99.90;;;;;;5095802;28;20508;-60
2023/07/29 02:55:56;;;;;;;9.60;7.17;;;18.40;99.90;;;;;;5116596;28;20481;-61
2023/07/29 02:58:23;;;;;;;8.80;6.90;;;18.00;99.90;;;;;;5115979;28;20441;-63
2023/07/29 03:00:51;;;;;;;9.00;6.53;;;;;;;;;;5115294;28;20499;-61
2023/07/29 03:03:19;;;;;;;8.40;6.33;;;;;;;;;;5102168;28;20978;-62
2023/07/29 03:05:47;;;;;;;9.80;7.17;;;18.20;99.90;;;;;;5092407;28;20454;-55
2023/07/29 03:08:14;;;;;;;8.50;6.90;;;18.30;99.90;;;;;;5089981;28;20478;-63
2023/07/29 03:10:41;;;;;;;11.57;7.10;;;;;;;;;;5093104;28;20489;-57
2023/07/29 03:13:09;;;;;;;8.83;6.67;;;;;;;;;;5093844;28;20422;-62
2023/07/29 03:15:36;;;;;;;7.23;5.80;;;18.10;99.90;;;;;;5087654;28;20441;-61
2023/07/29 03:18:03;;;;;;;8.00;6.17;;;17.90;99.90;;;;;;5096407;28;20433;-61
2023/07/29 03:20:29;;;;;;;7.33;6.20;;;18.20;99.90;;;;;;5088557;28;20505;-60
2023/07/29 03:22:58;;;;;;;8.00;6.30;;;18.20;99.90;;;;;;5088769;28;20449;-62
2023/07/29 03:25:24;;;;;;;8.60;6.03;;;18.00;99.90;;;;;;5091175;28;20466;-60
2023/07/29 03:27:51;;;;;;;8.33;6.00;;;18.40;99.90;;;;;;5087444;28;20985;-62
2023/07/29 03:30:20;;;;;;;6.90;6.03;;;18.20;99.90;;;;;;5087695;28;20514;-62
2023/07/29 03:32:47;;;;;;;7.20;6.50;;;18.20;99.90;;;;;;5087116;28;20508;-61
2023/07/29 03:35:14;;;;;;;9.30;7.10;;;18.10;99.90;;;;;;5086741;28;20512;-62
2023/07/29 03:37:41;;;;;;;9.47;6.43;;;;;;;;;;5087409;28;20485;-61
2023/07/29 03:40:10;;;;;;;8.00;6.80;;;18.10;99.90;;;;;;5087766;28;20426;-58
2023/07/29 03:42:37;;;;;;;6.70;6.00;;;18.20;99.90;;;;;;5101515;28;20529;-63
2023/07/29 03:45:05;;;;;;;8.67;6.90;;;18.30;99.90;;;;;;5107536;28;20496;-62
2023/07/29 03:47:32;;;;;;;8.47;7.10;;;18.10;99.90;;;;;;5107131;28;20701;-63
2023/07/29 03:49:59;;;;;;;9.57;6.40;;;18.00;99.90;;;;;;5106647;28;20489;-62
2023/07/29 03:52:26;;;;;;;8.13;6.30;;;18.20;99.90;;;;;;5107922;28;20430;-63
2023/07/29 03:54:53;;;;;;;7.90;7.10;;;18.90;99.90;;;;;;5107352;28;20481;-59
2023/07/29 03:57:21;;;;;;;7.33;5.80;;;18.20;99.90;;;;;;5106856;28;20501;-59
2023/07/29 03:59:48;;;;;;;8.93;6.63;;;18.10;99.90;;;;;;5096942;28;20926;-63
2023/07/29 04:02:15;;;;;;;8.23;5.67;;;18.20;99.90;;;;;;5105012;28;20479;-54
2023/07/29 04:04:44;;;;;;;10.57;6.80;;;18.30;99.90;;;;;;5114715;28;20394;-58
2023/07/29 04:07:10;;;;;;;7.37;6.20;;;18.30;99.90;;;;;;5115085;28;20529;-58
2023/07/29 04:09:37;;;;;;;9.77;7.07;;;18.40;99.90;;;;;;5106509;28;20468;-62
2023/07/29 04:12:05;;;;;;;7.53;6.40;;;18.40;99.90;;;;;;5106518;28;20473;-63
2023/07/29 04:14:33;;;;;;;8.70;7.50;;;18.60;99.90;;;;;;5106766;28;20537;-63
2023/07/29 04:17:00;;;;;;;11.90;8.20;;;18.50;99.90;;;;;;5110599;28;21071;-59
2023/07/29 04:19:27;;;;;;;7.57;6.20;;;18.60;99.90;;;;;;5115046;28;20453;-61
2023/07/29 04:21:54;;;;;;;7.47;6.70;;;18.50;99.90;;;;;;5108955;28;20485;-62
2023/07/29 04:24:23;;;;;;;7.97;7.17;;;18.70;99.90;;;;;;5114592;28;20457;-60
2023/07/29 04:26:50;;;;;;;7.47;6.73;;;18.60;99.90;;;;;;5111284;28;20469;-63
2023/07/29 04:29:17;;;;;;;9.40;6.40;;;;;;;;;;5106394;28;20438;-62
2023/07/29 04:31:45;;;;;;;7.60;6.50;;;18.70;99.90;;;;;;5106505;28;20487;-63
2023/07/29 04:34:12;;;;;;;7.07;6.00;;;18.70;99.90;;;;;;5106892;28;20477;-63
2023/07/29 04:36:39;;;;;;;7.37;5.87;;;18.70;99.90;;;;;;5112089;28;20680;-59
2023/07/29 04:39:06;;;;;;;6.70;5.90;;;18.90;99.90;;;;;;5102291;28;20527;-59
2023/07/29 04:41:33;;;;;;;7.73;5.23;;;18.80;99.90;;;;;;5082700;28;20553;-61
2023/07/29 04:44:00;;;;;;;8.57;6.43;;;18.90;99.90;;;;;;5085996;28;20853;-58
2023/07/29 04:46:26;;;;;;;9.90;6.60;;;18.70;99.90;;;;;;5084893;28;20538;-61
2023/07/29 04:48:55;;;;;;;7.03;6.13;;;18.90;99.90;;;;;;5085596;28;20459;-59
2023/07/29 04:51:22;;;;;;;10.00;6.73;;;18.70;99.90;;;;;;5083766;28;20853;-63
2023/07/29 04:53:49;;;;;;;8.03;5.90;;;18.40;99.90;;;;;;5084538;28;20502;-63
2023/07/29 04:56:16;;;;;;;7.30;6.50;;;;;;;;;;5084650;28;20538;-62
2023/07/29 04:58:43;;;;;;;10.80;6.97;;;19.10;99.90;;;;;;5085719;28;20462;-63
2023/07/29 05:01:10;;;;;;;6.93;5.83;;;;;;;;;;5085203;28;20446;-62
2023/07/29 05:03:39;;;;;;;8.57;7.70;;;18.90;99.90;;;;;;5083719;28;20510;-62
2023/07/29 05:06:07;;;;;;;7.30;5.83;;;18.90;99.90;;;;;;5079692;28;20439;-58
2023/07/29 05:08:35;;;;;;;7.03;5.93;;;;;;;;;;5080040;28;20513;-64
2023/07/29 05:11:05;;;;;;;11.43;5.30;;;19.20;99.90;;;;;;5099116;28;20453;-64
2023/07/29 05:13:32;;;;;;;6.40;5.80;;;19.60;99.90;;;;;;5099129;28;20488;-62
2023/07/29 05:15:59;;;;;;;8.13;6.60;;;19.80;99.90;;;;;;5100141;28;20497;-62
2023/07/29 05:18:26;;;;;;;7.00;6.17;;;19.10;99.90;;;;;;5099426;28;20441;-63
2023/07/29 05:20:52;;;;;;;6.10;4.90;;;18.90;99.90;;;;;;5110299;28;20471;-61
2023/07/29 05:23:21;;;;;;;7.17;6.27;;;19.20;99.90;;;;;;5109918;28;20453;-57
2023/07/29 05:25:47;;;;;;;9.43;5.40;;;19.00;99.90;;;;;;5116142;28;20458;-59
2023/07/29 05:28:15;;;;;;;5.13;4.60;;;;;;;;;;5113209;28;20500;-62
2023/07/29 05:30:42;;;;;;;7.07;5.67;;;;;;;;;;5105590;28;20489;-56
2023/07/29 05:33:09;;;;;;;6.83;5.77;;;19.50;99.90;;;;;;5102338;28;20482;-60
2023/07/29 05:35:35;;;;;;;6.33;5.70;;;19.50;99.90;;;;;;5097295;28;20568;-61
2023/07/29 05:38:08;;;;;;;6.97;5.30;;;19.80;99.90;;;;;;5101142;28;21757;-63
2023/07/29 05:40:36;;;;;;;8.37;6.47;;;19.50;99.90;;;;;;5100464;28;20473;-64
2023/07/29 05:43:03;;;;;;;5.77;5.23;;;19.70;99.90;;;;;;5102600;28;20469;-60
2023/07/29 05:45:31;;;;;;;5.17;4.40;;;20.10;99.90;;;;;;5103611;28;20429;-62
2023/07/29 05:47:58;;;;;;;7.93;5.37;;;;;;;;;;5100961;28;20453;-63
2023/07/29 05:50:25;;;;;;;5.13;4.63;;;19.80;99.90;;;;;;5091132;28;20870;-65
2023/07/29 05:52:52;;;;;;;6.27;5.60;;;19.70;99.90;;;;;;5097183;28;20467;-62
2023/07/29 05:55:19;;;;;;;6.00;5.30;;;;;;;;;;5100809;28;20533;-61
2023/07/29 05:57:47;;;;;;;6.73;5.53;;;20.10;99.90;;;;;;5099202;28;20477;-63
2023/07/29 06:00:14;;;;;;;5.67;5.17;;;;;;;;;;5093287;28;20452;-64
2023/07/29 06:02:42;;;;;;;6.60;5.47;;;;;;;;;;5089732;28;20455;-63
2023/07/29 06:05:09;;;;;;;6.50;5.90;;;20.10;99.90;;;;;;5088558;28;21058;-61
2023/07/29 06:07:36;;;;;;;6.20;5.10;;;20.20;99.90;;;;;;5101506;28;20498;-62
2023/07/29 06:10:02;;;;;;;5.37;4.43;;;20.30;99.90;;;;;;5093583;28;20476;-61
2023/07/29 06:12:30;;;;;;;8.70;5.53;;;;;;;;;;5105235;28;20517;-58
2023/07/29 06:14:58;;;;;;;8.23;4.70;;;20.70;99.90;;;;;;5122853;28;20487;-59
2023/07/29 06:17:25;;;;;;;4.77;4.33;;;20.70;99.90;;;;;;5120136;28;20449;-59
2023/07/29 06:19:52;;;;;;;11.50;5.40;;;20.50;99.90;;;;;;5110495;28;20484;-59
2023/07/29 06:22:22;;;;;;;6.70;4.40;;;21.10;99.90;;;;;;5094923;28;20519;-62
2023/07/29 06:24:49;;;;;;;4.67;4.20;;;20.80;99.90;;;;;;5102299;28;20549;-59
2023/07/29 06:27:15;;;;;;;8.63;4.57;;;21.00;99.90;;;;;;5106953;28;20549;-58
2023/07/29 06:29:42;;;;;;;7.40;4.70;;;21.10;99.90;;;;;;5094594;28;20467;-63
2023/07/29 06:32:11;;;;;;;7.40;4.30;;;21.20;99.90;;;;;;5109269;28;20449;-66
2023/07/29 06:34:38;;;;;;;4.37;3.97;;;;;;;;;;5085588;28;20485;-65
2023/07/29 06:37:05;;;;;;;5.37;4.00;;;;;;;;;;5093111;28;20463;-64
2023/07/29 06:39:32;;;;;;;4.60;4.20;;;21.30;99.90;;;;;;5093821;28;20476;-64
2023/07/29 06:41:59;;;;;;;4.23;3.83;;;21.60;99.90;;;;;;5093492;28;21015;-66
2023/07/29 06:44:26;;;;;;;5.93;4.00;;;21.30;99.90;;;;;;5095336;28;21014;-64
2023/07/29 06:46:53;;;;;;;4.90;4.40;;;;;;;;;;5094634;28;20449;-63
2023/07/29 06:49:21;;;;;;;6.97;4.20;;;21.50;99.90;;;;;;5094512;28;20484;-65
2023/07/29 06:51:48;;;;;;;5.80;4.30;;;;;;;;;;5094490;28;20491;-61
2023/07/29 06:54:17;;;;;;;3.77;3.40;;;21.50;99.90;;;;;;5094651;28;20445;-65
2023/07/29 06:56:44;;;;;;;6.30;4.20;;;;;;;;;;5099151;28;20491;-65
2023/07/29 06:59:11;;;;;;;4.80;3.27;;;;;;;;;;5094211;28;20541;-66
2023/07/29 07:01:38;;;;;;;5.13;4.20;;;22.10;99.90;;;;;;5098518;28;20491;-65
2023/07/29 07:04:05;;;;;;;4.30;3.70;;;22.10;99.90;;;;;;5098294;28;20548;-66
2023/07/29 07:06:33;;;;;;;4.30;3.90;;;22.20;99.90;;;;;;5099459;28;20453;-63
2023/07/29 07:09:00;;;;;;;5.00;3.90;;;22.30;99.90;;;;;;5096193;28;20445;-64
2023/07/29 07:11:27;;;;;;;4.10;3.70;;;22.50;99.90;;;;;;5096764;28;20537;-64
2023/07/29 07:13:54;;;;;;;12.90;4.60;;;22.90;99.90;;;;;;5099261;28;20473;-65
2023/07/29 07:16:20;;;;;;;6.13;3.70;;;22.80;99.90;;;;;;5095854;28;20536;-66
2023/07/29 07:18:48;;;;;;;4.77;3.47;;;;;;;;;;5095391;28;20580;-65
2023/07/29 07:21:15;;;;;;;3.53;3.20;;;23.00;99.90;;;;;;5098556;28;20549;-65
2023/07/29 07:23:43;;;;;;;5.30;3.53;;;23.40;99.90;;;;;;5098260;28;20449;-65
2023/07/29 07:26:10;;;;;;;3.83;3.43;;;;;;;;;;5098887;28;20503;-61
2023/07/29 07:28:37;;;;;;;4.13;3.73;;;;;;;;;;5097887;28;20496;-65
2023/07/29 07:31:06;;;;;;;4.37;3.93;;;23.50;99.90;;;;;;5098645;28;20524;-64
2023/07/29 07:33:35;;;;;;;3.97;3.30;;;23.20;99.90;;;;;;5100631;28;20460;-63
2023/07/29 07:36:04;;;;;;;4.43;4.03;;;24.00;99.90;;;;;;5100690;28;20552;-65
2023/07/29 07:38:31;;;;;;;4.03;3.70;;;23.70;99.90;;;;;;5101615;28;20445;-64
2023/07/29 07:41:00;;;;;;;4.37;3.50;;;23.70;99.90;;;;;;5099635;28;20503;-65
2023/07/29 07:43:27;;;;;;;6.13;3.97;;;24.20;99.90;;;;;;5101925;28;21075;-64
2023/07/29 07:46:00;;;;;;;5.87;4.33;;;23.80;99.90;;;;;;5099924;28;20466;-65
2023/07/29 07:48:27;;;;;;;4.00;3.60;;;24.10;99.90;;;;;;5102340;28;20512;-64
2023/07/29 07:50:54;;;;;;;9.60;4.40;;;24.60;99.90;;;;;;5101221;28;20980;-64
2023/07/29 07:53:20;;;;;;;3.63;3.33;;;25.10;99.90;;;;;;5109752;28;20438;-65
2023/07/29 07:55:48;;;;;;;3.50;3.20;;;;;;;;;;5108473;28;20485;-65
2023/07/29 07:58:19;;;;;;;6.63;3.80;;;24.50;99.90;;;;;;5100885;28;20473;-63
2023/07/29 08:00:46;;;;;;;3.87;3.53;;;24.60;99.90;;;;;;5101008;28;20450;-63
2023/07/29 08:03:12;;;;;;;3.97;3.60;;;26.00;99.90;;;;;;5098531;28;20860;-65
2023/07/29 08:05:39;;;;;;;3.97;3.67;;;26.60;99.90;;;;;;5098572;28;20906;-65
2023/07/29 08:08:06;;;;;;;3.47;3.17;;;;;;;;;;5099144;28;20465;-65
2023/07/29 08:10:34;;;;;;;4.30;3.50;;;;;;;;;;5097672;28;20560;-63
2023/07/29 08:13:01;;;;;;;4.00;3.30;;;;;;;;;;5097699;28;20891;-64
2023/07/29 08:15:29;;;;;;;4.97;2.97;;;27.50;99.90;;;;;;5093805;28;20462;-64
2023/07/29 08:17:56;;;;;;;3.83;3.33;;;;;;;;;;5093816;28;20446;-63
2023/07/29 08:20:23;;;;;;;3.30;3.00;;;29.00;99.90;;;;;;5082032;28;20908;-64
2023/07/29 08:22:50;;;;;;;2.90;2.70;;;29.60;99.90;;;;;;5079135;28;20462;-65
2023/07/29 08:25:17;;;;;;;3.40;3.10;;;29.50;99.90;;;;;;5077536;28;20461;-66
2023/07/29 08:27:44;;;;;;;4.10;3.40;;;;;;;;;;5078493;28;20449;-63
2023/07/29 08:30:12;;;;;;;3.10;2.87;;;28.40;99.90;;;;;;5100985;28;20496;-63
2023/07/29 08:32:40;;;;;;;4.93;3.33;;;28.40;99.90;;;;;;5102908;28;20440;-64
2023/07/29 08:35:07;;;;;;;3.90;3.60;;;28.40;99.90;;;;;;5104134;28;20548;-65
2023/07/29 08:37:34;;;;;;;4.13;3.30;;;28.80;99.90;;;;;;5098408;28;20485;-62
2023/07/29 08:40:02;;;;;;;3.67;3.37;;;29.40;99.90;;;;;;5098893;28;20441;-66
2023/07/29 08:42:32;;;;;;;3.90;3.10;;;29.60;99.90;;;;;;5098169;28;20847;-65
2023/07/29 08:45:08;;;;;;;3.80;3.43;;;29.70;99.90;;;;;;5099430;28;20823;-64
2023/07/29 08:47:37;;;;;;;3.73;3.43;;;28.90;99.90;;;;;;5099272;28;20854;-65
2023/07/29 08:50:07;;;;;;;4.70;4.30;;;28.40;99.90;;;;;;5098680;28;20549;-64
2023/07/29 08:52:35;;;;;;;4.40;3.60;;;28.30;99.90;;;;;;5097864;28;20552;-60
2023/07/29 08:55:02;;;;;;;3.20;2.90;;;27.50;99.90;;;;;;5096511;28;20794;-65
2023/07/29 08:57:30;;;;;;;3.80;3.40;;;27.30;99.90;;;;;;5096777;28;20456;-63
2023/07/29 08:59:59;;;;;;;4.37;3.47;;;27.20;99.90;;;;;;5096425;28;20484;-65
2023/07/29 09:02:26;;;;;;;3.67;3.27;;;27.10;99.90;;;;;;5098298;28;20485;-65
2023/07/29 09:04:53;;;;;;;3.97;3.57;;;;;;;;;;5097734;28;20483;-64
2023/07/29 09:07:22;;;;;;;3.30;3.10;;;27.10;99.90;;;;;;5099295;28;20520;-65
2023/07/29 09:09:49;;;;;;;3.90;3.27;;;;;;;;;;5097734;28;20493;-65
2023/07/29 09:12:16;;;;;;;3.43;2.53;;;;;;;;;;5098275;28;20499;-64
2023/07/29 09:14:44;;;;;;;4.27;3.40;;;;;;;;;;5098028;28;20552;-64
2023/07/29 09:17:11;;;;;;;3.50;3.20;;;;;;;;;;5096784;28;20768;-63
2023/07/29 09:19:38;;;;;;;3.30;3.00;;;26.20;99.90;;;;;;5097066;28;20469;-65
2023/07/29 09:22:06;;;;;;;3.67;3.37;;;26.10;99.90;;;;;;5096647;28;20503;-65
2023/07/29 09:24:34;;;;;;;5.67;4.00;;;25.60;99.90;;;;;;5096676;28;20477;-64
2023/07/29 09:27:02;;;;;;;4.40;4.00;;;;;;;;;;5096263;28;20560;-64
2023/07/29 09:29:29;;;;;;;4.13;3.80;;;25.20;99.90;;;;;;5096722;28;20484;-64
2023/07/29 09:32:15;;;;;;;3.80;3.40;;;25.40;99.90;;;;;;5094777;28;20483;-64
2023/07/29 09:34:42;;;;;;;5.23;3.43;;;25.50;99.90;;;;;;5094563;28;20548;-65
2023/07/29 09:37:10;;;;;;;4.30;3.90;;;;;;;;;;5094640;28;20582;-63
2023/07/29 09:39:38;;;;;;;4.03;3.60;;;25.90;99.90;;;;;;5094767;28;20930;-65
2023/07/29 09:42:06;;;;;;;5.03;4.07;;;26.20;99.90;;;;;;5095305;28;20457;-65
2023/07/29 09:44:37;;;;;;;10.00;7.30;;;26.00;99.90;;;;;;5097738;28;20448;-65
2023/07/29 09:47:04;;;;;;;4.13;3.10;;;26.40;99.90;;;;;;5098302;28;20437;-66
2023/07/29 09:49:36;;;;;;;3.57;2.90;;;26.00;99.90;;;;;;5097423;28;20539;-63
2023/07/29 09:52:05;;;;;;;3.40;3.10;;;26.00;99.90;;;;;;5082095;28;20549;-66
2023/07/29 09:54:32;;;;;;;3.53;2.63;;;;;;;;;;5076712;28;20525;-64
2023/07/29 09:57:00;;;;;;;3.33;3.03;;;26.00;99.90;;;;;;5078091;28;20557;-65
2023/07/29 09:59:28;;;;;;;3.20;2.90;;;;;;;;;;5078061;28;20545;-65
2023/07/29 10:01:55;;;;;;;3.73;3.00;;;26.40;99.90;;;;;;5076633;28;20469;-64
2023/07/29 10:04:22;;;;;;;3.30;2.77;;;26.10;99.90;;;;;;5061153;28;20446;-66
2023/07/29 10:06:50;;;;;;;6.70;3.73;;;26.30;99.90;;;;;;5077025;28;20466;-64
2023/07/29 10:09:19;;;;;;;3.33;3.00;;;26.30;99.90;;;;;;5075316;28;20529;-63
2023/07/29 10:11:46;;;;;;;3.60;3.07;;;;;;;;;;5073735;28;20482;-64
2023/07/29 10:14:16;;;;;;;3.00;2.67;;;26.70;99.90;;;;;;5074040;28;20529;-64
2023/07/29 10:16:45;;;;;;;2.83;2.53;;;27.10;99.90;;;;;;5075076;28;20581;-66
2023/07/29 10:19:12;;;;;;;4.00;2.77;;;27.00;99.90;;;;;;5076295;28;20891;-63
2023/07/29 10:21:45;;;;;;;3.10;2.70;;;26.60;99.90;;;;;;5089389;28;20446;-64
2023/07/29 10:24:18;;;;;;;3.47;2.70;;;27.30;99.90;;;;;;5097166;28;20472;-64
2023/07/29 10:26:47;;;;;;;3.47;2.40;;;26.60;99.90;;;;;;5103540;28;20449;-64
2023/07/29 10:29:19;;;;;;;2.93;2.40;;;26.50;99.90;;;;;;5102276;28;20476;-65
2023/07/29 10:31:47;;;;;;;3.63;2.67;;;26.40;99.90;;;;;;5104765;28;20532;-65
2023/07/29 10:34:14;;;;;;;2.70;2.50;;;;;;;;;;5099433;28;20469;-65
2023/07/29 10:36:42;;;;;;;2.77;2.53;;;26.00;99.90;;;;;;5097773;28;20534;-65
2023/07/29 10:39:10;;;;;;;2.63;2.40;;;;;;;;;;5096525;28;20540;-65
2023/07/29 10:41:56;;;;;;;3.87;2.50;;;25.90;99.90;;;;;;5099561;28;20446;-63
2023/07/29 10:44:52;;;;;;;2.50;2.30;;;25.80;99.90;;;;;;5102248;28;20461;-65
2023/07/29 10:47:24;;;;;;;3.07;2.37;;;25.60;99.90;;;;;;5101380;28;20894;-65
2023/07/29 10:49:54;;;;;;;2.53;2.33;;;25.30;99.90;;;;;;5100888;28;20429;-65
2023/07/29 10:52:42;;;;;;;2.33;2.13;;;25.70;99.90;;;;;;5097645;28;20449;-62
2023/07/29 10:55:28;;;;;;;3.03;2.70;;;25.70;99.90;;;;;;5100357;28;20426;-66
2023/07/29 10:58:09;;;;;;;2.57;2.10;;;25.70;99.90;;;;;;5105625;28;20475;-65
2023/07/29 11:00:39;;;;;;;6.63;5.70;;;25.90;99.90;;;;;;5105817;28;20465;-65
2023/07/29 11:03:07;;;;;;;11.63;10.53;;;25.90;99.90;;;;;;5102042;28;20440;-65
2023/07/29 11:05:45;;;;;;;2.50;2.30;;;25.50;99.90;;;;;;5105702;28;20491;-61
2023/07/29 11:08:23;;;;;;;3.20;2.90;;;25.70;99.90;;;;;;5099895;28;20501;-65
2023/07/29 11:11:04;;;;;;;2.47;2.23;;;25.30;99.90;;;;;;5100652;28;20924;-64
2023/07/29 11:13:33;;;;;;;2.87;2.50;;;25.20;99.90;;;;;;5102247;28;20513;-65
2023/07/29 11:16:01;;;;;;;2.20;2.03;;;25.10;99.90;;;;;;5101657;28;20505;-65
2023/07/29 11:18:30;;;;;;;2.07;1.83;;;24.80;99.90;;;;;;5099740;28;20492;-65
2023/07/29 11:20:58;;;;;;;4.30;1.77;;;24.70;99.90;;;;;;5099029;28;20512;-66
2023/07/29 11:23:32;;;;;;;8.27;2.90;;;23.90;99.90;;;;;;5098902;28;20533;-62
2023/07/29 11:25:59;;;;;;;5.97;2.67;;;;;;;;;;5099147;28;20505;-64
2023/07/29 11:28:27;;;;;;;3.17;2.30;;;22.30;99.90;;;;;;5099670;28;20433;-64
2023/07/29 11:30:55;;;;;;;4.40;3.77;;;22.20;99.90;;;;;;5102038;28;20469;-65
2023/07/29 11:33:25;;;;;;;5.27;2.50;;;21.80;99.90;;;;;;5105478;28;20454;-65
2023/07/29 11:35:52;;;;;;;3.07;2.43;;;21.30;99.90;;;;;;5104720;28;20609;-64
2023/07/29 11:38:20;;;;;;;4.57;2.17;;;21.30;99.90;;;;;;5102594;28;20462;-64
2023/07/29 11:41:00;;;;;;;5.23;1.93;;;21.10;99.90;;;;;;5101469;28;20576;-65
2023/07/29 11:43:27;;;;;;;4.20;2.07;;;21.10;99.90;;;;;;5105811;28;20429;-65
2023/07/29 11:45:55;;;;;;;2.03;1.83;;;;;;;;;;5101474;28;20441;-68
2023/07/29 11:48:32;;;;;;;2.87;1.90;;;21.00;99.90;;;;;;5101317;28;20541;-67
2023/07/29 11:50:59;;;;;;;2.13;1.67;;;;;;;;;;5102705;28;20474;-65
2023/07/29 11:53:29;;;;;;;2.63;2.20;;;21.40;99.90;;;;;;5099392;28;20942;-65
2023/07/29 11:55:56;;;;;;;4.03;2.73;;;21.20;99.90;;;;;;5098680;28;20493;-65
2023/07/29 11:58:24;;;;;;;6.40;4.03;;;20.90;99.90;;;;;;5096479;28;20544;-65
2023/07/29 12:00:52;;;;;;;26.80;15.30;;;21.30;99.90;;;;;;5096530;28;20528;-63
2023/07/29 12:03:19;;;;;;;4.73;3.63;;;;;;;;;;5096592;28;20970;-65
2023/07/29 12:05:47;;;;;;;3.03;2.73;;;;;;;;;;5096273;28;20957;-66
2023/07/29 12:08:15;;;;;;;3.77;2.43;;;;;;;;;;5096842;28;20536;-65
2023/07/29 12:10:42;;;;;;;2.90;2.20;;;21.10;99.90;;;;;;5098824;28;20533;-64
2023/07/29 12:13:10;;;;;;;2.40;2.20;;;21.80;99.90;;;;;;5102230;28;20471;-65
2023/07/29 12:15:42;;;;;;;3.10;2.37;;;21.30;99.90;;;;;;5108774;28;20615;-65
2023/07/29 12:18:09;;;;;;;3.07;2.60;;;21.30;99.90;;;;;;5110780;28;20472;-66
2023/07/29 12:20:36;;;;;;;2.10;1.57;;;;;;;;;;5102678;28;20936;-65
2023/07/29 12:23:06;;;;;;;1.93;1.60;;;22.10;99.90;;;;;;5104241;28;20474;-65
2023/07/29 12:25:33;;;;;;;3.80;2.70;;;21.40;99.90;;;;;;5105767;28;20469;-64
2023/07/29 12:28:04;;;;;;;2.60;1.90;;;21.40;99.90;;;;;;5098662;28;20438;-65
2023/07/29 12:30:31;;;;;;;3.10;2.47;;;21.30;99.90;;;;;;5099343;28;20477;-66
2023/07/29 12:32:58;;;;;;;2.13;1.93;;;21.30;99.90;;;;;;5101123;28;20560;-65
2023/07/29 12:35:25;;;;;;;3.70;2.10;;;;;;;;;;5076448;28;20486;-65
2023/07/29 12:37:59;;;;;;;2.90;2.03;;;21.40;99.90;;;;;;5092998;28;20528;-62
2023/07/29 12:40:30;;;;;;;2.60;2.10;;;21.40;99.90;;;;;;5095684;28;20429;-64
2023/07/29 12:42:57;;;;;;;3.30;2.03;;;21.40;99.90;;;;;;5095168;28;20487;-64
2023/07/29 12:45:26;;;;;;;3.90;2.40;;;21.40;99.90;;;;;;5096501;28;20453;-64
2023/07/29 12:47:53;;;;;;;2.40;2.20;;;21.90;99.90;;;;;;5099725;28;20552;-65
2023/07/29 12:50:20;;;;;;;2.33;2.07;;;21.80;99.90;;;;;;5099731;28;20538;-64
2023/07/29 12:52:48;;;;;;;2.03;1.83;;;;;;;;;;5099085;28;20441;-63
2023/07/29 12:55:15;;;;;;;3.00;2.30;;;;;;;;;;5099358;28;20544;-64
2023/07/29 12:57:44;;;;;;;6.63;2.47;;;23.40;99.90;;;;;;5099336;28;20564;-61
2023/07/29 13:00:12;;;;;;;2.70;2.50;;;23.10;99.90;;;;;;5082121;28;20489;-64
2023/07/29 13:02:39;;;;;;;3.63;3.17;;;22.90;99.90;;;;;;5078613;28;20528;-64
2023/07/29 13:05:07;;;;;;;4.60;2.90;;;23.50;99.90;;;;;;5082039;28;20514;-61
2023/07/29 13:07:34;;;;;;;2.43;2.10;;;23.20;99.90;;;;;;5079521;28;20498;-64
2023/07/29 13:10:01;;;;;;;2.23;1.97;;;23.00;99.90;;;;;;5078709;28;20521;-63